This is the latest recevied weather packets stored in our database for station/object GBTWP-2. If no packets are shown the sender has not sent any weather packets the latest 10 day(s).
| Time | Temp. | Humidity | Pressure | Rain* | Wind** | Luminosity | Snow |
|---|---|---|---|---|---|---|---|
| 1788029520 | 27.78° C | 51% | 1023.3 hPa | 0 mm | - | 299 W/m² | - |
| 1788029220 | 27.22° C | 51% | 1023.4 hPa | 0 mm | - | 379 W/m² | - |
| 1788028920 | 27.78° C | 50% | 1023.4 hPa | 0 mm | - | 439 W/m² | - |
| 1788028620 | 27.22° C | 52% | 1023.7 hPa | 0 mm | - | 553 W/m² | - |
| 1788028319 | 27.22° C | 52% | 1023.7 hPa | 0 mm | - | 482 W/m² | - |
| 1788028020 | 26.67° C | 54% | 1023.6 hPa | 0 mm | - | 532 W/m² | - |
| 1788027720 | 27.22° C | 52% | 1023.6 hPa | 0 mm | - | 158 W/m² | - |
| 1788027420 | 27.22° C | 52% | 1023.7 hPa | 0 mm | - | 457 W/m² | - |
| 1788027120 | 27.22° C | 53% | 1023.7 hPa | 0 mm | - | 191 W/m² | - |
| 1788026820 | 26.67° C | 51% | 1023.9 hPa | 0 mm | - | 700 W/m² | - |
| 1788026521 | 27.78° C | 50% | 1023.8 hPa | 0 mm | - | 233 W/m² | - |
| 1788026220 | 26.67° C | 51% | 1023.7 hPa | 0 mm | - | 690 W/m² | - |
| 1788025920 | 27.22° C | 50% | 1023.7 hPa | 0 mm | - | 187 W/m² | - |
| 1788025620 | 27.78° C | 50% | 1023.8 hPa | 0 mm | - | 179 W/m² | - |
| 1788025320 | 27.78° C | 48% | 1023.7 hPa | 0 mm | - | 520 W/m² | - |
| 1788025021 | 27.78° C | 48% | 1024 hPa | 0 mm | - | 220 W/m² | - |
| 1788024720 | 28.33° C | 47% | 1023.9 hPa | 0 mm | - | 268 W/m² | - |
| 1788024420 | 27.22° C | 48% | 1024 hPa | 0 mm | - | 649 W/m² | - |
| 1788024121 | 27.22° C | 46% | 1023.9 hPa | 0 mm | - | 630 W/m² | - |
| 1788023820 | 26.67° C | 49% | 1024 hPa | 0 mm | - | 653 W/m² | - |
| 1788023520 | 26.67° C | 47% | 1024 hPa | 0 mm | - | 635 W/m² | - |
| 1788023220 | 26.67° C | 47% | 1024.1 hPa | 0 mm | - | 442 W/m² | - |
| 1788022920 | 27.22° C | 45% | 1024.2 hPa | 0 mm | - | 490 W/m² | - |
| 1788022620 | 27.22° C | 46% | 1024.1 hPa | 0 mm | - | 615 W/m² | - |
| 1788022320 | 26.67° C | 46% | 1024.1 hPa | 0 mm | - | 639 W/m² | - |
* Rain latest hour (hover to see other rain measurements)
** Current wind speed in m/s (hover to see current wind gust speed)